createdAt,value
2022-11-17T00:00:04.946Z,0.70
2022-11-17T00:02:32.727Z,0.70
2022-11-17T00:05:00.461Z,0.70
2022-11-17T00:07:28.217Z,0.82
2022-11-17T00:09:55.959Z,0.80
2022-11-17T00:12:41.066Z,0.70
2022-11-17T00:15:10.585Z,0.70
2022-11-17T00:17:38.307Z,0.80
2022-11-17T00:20:24.747Z,0.73
2022-11-17T00:22:52.443Z,0.70
2022-11-17T00:25:20.153Z,0.50
2022-11-17T00:27:47.852Z,0.90
2022-11-17T00:30:30.934Z,0.80
2022-11-17T00:33:20.054Z,1.00
2022-11-17T00:35:52.221Z,0.73
2022-11-17T00:38:19.949Z,0.60
2022-11-17T00:40:48.211Z,0.95
2022-11-17T00:43:15.951Z,0.73
2022-11-17T00:45:45.049Z,1.10
2022-11-17T00:48:13.788Z,0.93
2022-11-17T00:50:41.529Z,0.70
2022-11-17T00:53:09.292Z,0.90
2022-11-17T00:55:36.984Z,0.80
2022-11-17T00:58:04.821Z,0.75
2022-11-17T01:00:32.581Z,0.50
2022-11-17T01:03:01.635Z,0.80
2022-11-17T01:05:33.022Z,0.50
2022-11-17T01:08:01.078Z,0.90
2022-11-17T01:10:28.787Z,0.90
2022-11-17T01:12:56.522Z,0.60
2022-11-17T01:15:24.266Z,0.60
2022-11-17T01:17:51.976Z,0.80
2022-11-17T01:20:21.111Z,0.60
2022-11-17T01:22:48.882Z,0.70
2022-11-17T01:25:16.775Z,0.70
2022-11-17T01:27:44.482Z,0.70
2022-11-17T01:30:13.774Z,0.50
2022-11-17T01:32:41.493Z,0.70
2022-11-17T01:35:09.934Z,0.57
2022-11-17T01:37:39.024Z,0.70
2022-11-17T01:40:08.246Z,0.50
2022-11-17T01:42:35.999Z,0.60
2022-11-17T01:45:05.788Z,0.70
2022-11-17T01:47:39.926Z,0.77
2022-11-17T01:50:20.904Z,0.57
2022-11-17T01:52:52.016Z,0.60
2022-11-17T01:55:22.984Z,0.70
2022-11-17T01:57:55.282Z,0.90
2022-11-17T02:00:23.409Z,0.60
2022-11-17T02:02:52.633Z,0.75
2022-11-17T02:05:42.666Z,0.80
2022-11-17T02:08:12.781Z,0.85
2022-11-17T02:10:41.198Z,0.90
2022-11-17T02:13:10.311Z,0.70
2022-11-17T02:15:38.011Z,0.55
2022-11-17T02:18:06.553Z,0.70
2022-11-17T02:20:49.732Z,0.52
2022-11-17T02:23:44.075Z,0.98
2022-11-17T02:26:25.846Z,0.50
2022-11-17T02:29:00.856Z,0.60
2022-11-17T02:31:37.775Z,0.60
2022-11-17T02:34:15.262Z,0.80
2022-11-17T02:36:50.640Z,0.70
2022-11-17T02:39:23.370Z,0.60
2022-11-17T02:41:56.191Z,0.63
2022-11-17T02:44:29.336Z,0.88
2022-11-17T02:47:03.962Z,0.70
2022-11-17T02:49:35.865Z,0.90
2022-11-17T02:52:05.792Z,0.70
2022-11-17T02:54:34.333Z,0.80
2022-11-17T02:57:02.083Z,0.70
2022-11-17T02:59:34.557Z,0.75
2022-11-17T03:02:25.172Z,0.90
2022-11-17T03:05:09.590Z,0.68
2022-11-17T03:07:52.090Z,0.65
2022-11-17T03:10:23.622Z,0.90
2022-11-17T03:12:56.613Z,0.93
2022-11-17T03:15:33.042Z,0.90
2022-11-17T03:18:08.994Z,0.80
2022-11-17T03:20:47.075Z,0.88
2022-11-17T03:23:19.647Z,0.80
2022-11-17T03:25:54.706Z,0.80
2022-11-17T03:28:28.101Z,0.70
2022-11-17T03:30:58.406Z,0.85
2022-11-17T03:33:28.489Z,1.00
2022-11-17T03:36:02.265Z,0.90
2022-11-17T03:38:34.521Z,0.90
2022-11-17T03:41:06.799Z,0.90
2022-11-17T03:43:34.918Z,0.90
2022-11-17T03:46:09.228Z,0.88
2022-11-17T03:48:43.964Z,0.80
2022-11-17T03:51:16.111Z,0.85
2022-11-17T03:53:44.699Z,0.90
2022-11-17T03:56:25.952Z,0.70
2022-11-17T03:59:00.186Z,0.63
2022-11-17T04:01:32.111Z,0.90
2022-11-17T04:03:59.954Z,0.70
2022-11-17T04:06:27.761Z,0.60
2022-11-17T04:08:55.509Z,0.80
2022-11-17T04:11:40.796Z,0.68
2022-11-17T04:14:26.068Z,0.98
2022-11-17T04:16:55.242Z,0.80
2022-11-17T04:19:22.940Z,0.57
2022-11-17T04:21:50.696Z,0.63
2022-11-17T04:24:18.407Z,0.70
2022-11-17T04:27:02.968Z,0.88
2022-11-17T04:29:30.699Z,0.88
2022-11-17T04:31:59.776Z,0.77
2022-11-17T04:34:27.773Z,1.13
2022-11-17T04:36:55.487Z,0.70
2022-11-17T04:39:23.200Z,1.00
2022-11-17T04:41:57.404Z,1.00
2022-11-17T04:44:26.738Z,0.90
2022-11-17T04:46:55.067Z,1.00
2022-11-17T04:49:26.019Z,0.90
2022-11-17T04:51:55.041Z,1.00
2022-11-17T04:54:25.154Z,0.80
2022-11-17T04:56:54.058Z,0.70
2022-11-17T04:59:21.962Z,0.90
2022-11-17T05:01:49.910Z,0.90
2022-11-17T05:04:40.329Z,0.70
2022-11-17T05:07:10.009Z,0.90
2022-11-17T05:09:37.803Z,0.80
2022-11-17T05:12:23.270Z,0.90
2022-11-17T05:14:50.988Z,0.80
2022-11-17T05:17:17.930Z,0.93
2022-11-17T05:19:47.967Z,1.23
2022-11-17T05:22:36.551Z,0.90
2022-11-17T05:25:05.741Z,1.00
2022-11-17T05:27:34.374Z,1.17
2022-11-17T05:30:02.192Z,1.10
2022-11-17T05:32:29.916Z,1.15
2022-11-17T05:34:57.679Z,1.00
2022-11-17T05:37:26.844Z,1.10
2022-11-17T05:39:54.607Z,0.90
2022-11-17T05:42:22.342Z,0.90
2022-11-17T05:44:50.134Z,0.60
2022-11-17T05:47:17.875Z,0.63
2022-11-17T05:49:45.591Z,0.80
2022-11-17T05:52:13.304Z,0.77
2022-11-17T05:54:42.391Z,1.00
2022-11-17T05:57:13.976Z,1.10
2022-11-17T05:59:46.569Z,1.20
2022-11-17T06:02:21.798Z,1.02
2022-11-17T06:04:50.520Z,0.80
2022-11-17T06:07:19.165Z,0.80
2022-11-17T06:09:48.793Z,0.80
2022-11-17T06:14:44.277Z,1.00
2022-11-17T06:17:22.060Z,0.77
2022-11-17T06:19:54.582Z,0.90
2022-11-17T06:22:22.381Z,1.00
2022-11-17T06:24:51.509Z,0.90
2022-11-17T06:27:19.313Z,1.05
2022-11-17T06:29:47.850Z,0.77
2022-11-17T06:32:17.007Z,1.00
2022-11-17T06:34:51.930Z,1.02
2022-11-17T06:37:23.403Z,0.82
2022-11-17T06:39:52.520Z,1.00
2022-11-17T06:42:40.303Z,0.82
2022-11-17T06:45:09.122Z,0.70
2022-11-17T06:47:36.822Z,0.95
2022-11-17T06:50:05.242Z,1.00
2022-11-17T06:52:32.957Z,0.60
2022-11-17T06:55:02.012Z,0.90
2022-11-17T06:57:30.670Z,1.10
2022-11-17T06:59:58.370Z,1.00
2022-11-17T07:02:26.141Z,0.90
2022-11-17T07:04:53.799Z,0.90
2022-11-17T07:07:21.499Z,0.80
2022-11-17T07:09:49.194Z,0.90
2022-11-17T07:12:18.272Z,1.00
2022-11-17T07:14:46.032Z,0.95
2022-11-17T07:17:13.968Z,0.90
2022-11-17T07:19:41.706Z,0.98
2022-11-17T07:22:09.494Z,0.90
2022-11-17T07:24:37.184Z,0.70
2022-11-17T07:27:06.428Z,0.93
2022-11-17T07:29:35.528Z,0.75
2022-11-17T07:32:03.246Z,0.70
2022-11-17T07:34:30.905Z,0.82
2022-11-17T07:36:59.425Z,0.93
2022-11-17T07:39:27.160Z,0.60
2022-11-17T07:41:54.841Z,0.68
2022-11-17T07:44:22.580Z,0.90
2022-11-17T07:46:51.689Z,0.80
2022-11-17T07:49:19.364Z,0.88
2022-11-17T07:51:47.122Z,0.73
2022-11-17T07:54:14.837Z,0.77
2022-11-17T07:56:42.509Z,0.73
2022-11-17T07:59:10.411Z,0.65
2022-11-17T08:01:38.432Z,0.70
2022-11-17T08:04:07.588Z,0.70
2022-11-17T08:06:35.292Z,0.85
2022-11-17T08:09:03.055Z,0.80
2022-11-17T08:11:30.725Z,0.75
2022-11-17T08:13:59.095Z,0.60
2022-11-17T08:16:30.622Z,0.68
2022-11-17T08:18:58.525Z,0.70
2022-11-17T08:21:27.772Z,0.80
2022-11-17T08:23:56.216Z,0.82
2022-11-17T08:26:25.530Z,0.75
2022-11-17T08:28:58.117Z,0.80
2022-11-17T08:31:26.837Z,0.80
2022-11-17T08:33:54.620Z,0.68
2022-11-17T08:36:22.375Z,0.80
2022-11-17T08:38:51.496Z,0.80
2022-11-17T08:41:19.752Z,0.90
2022-11-17T08:43:47.421Z,0.80
2022-11-17T08:46:15.501Z,0.90
2022-11-17T08:48:43.216Z,0.80
2022-11-17T08:51:12.898Z,0.75
2022-11-17T08:56:11.169Z,0.90
2022-11-17T08:58:42.034Z,0.90
2022-11-17T09:01:10.234Z,0.80
2022-11-17T09:03:38.442Z,0.82
2022-11-17T09:06:07.003Z,0.80
2022-11-17T09:08:50.240Z,0.90
2022-11-17T09:11:20.774Z,0.80
2022-11-17T09:13:48.486Z,0.90
2022-11-17T09:16:17.319Z,0.73
2022-11-17T09:18:45.205Z,0.90
2022-11-17T09:21:15.091Z,0.55
2022-11-17T09:23:43.605Z,0.63
2022-11-17T09:26:13.794Z,0.80
2022-11-17T09:28:43.058Z,1.00
2022-11-17T09:31:12.759Z,0.93
2022-11-17T09:36:08.950Z,0.80
2022-11-17T09:38:37.545Z,0.80
2022-11-17T09:41:20.245Z,1.02
2022-11-17T09:43:55.639Z,0.88
2022-11-17T09:46:31.007Z,0.88
2022-11-17T09:49:08.799Z,0.70
2022-11-17T09:51:41.075Z,0.75
2022-11-17T09:54:16.723Z,0.90
2022-11-17T09:56:47.406Z,0.82
2022-11-17T09:59:19.193Z,0.65
2022-11-17T10:01:46.959Z,0.70
2022-11-17T10:04:18.546Z,0.98
2022-11-17T10:06:49.424Z,0.85
2022-11-17T10:09:25.675Z,0.90
2022-11-17T10:11:54.877Z,0.90
2022-11-17T10:14:24.430Z,0.80
2022-11-17T10:16:54.212Z,0.90
2022-11-17T10:19:24.337Z,0.85
2022-11-17T10:21:54.201Z,0.90
2022-11-17T10:24:35.348Z,0.82
2022-11-17T10:27:04.344Z,0.65
2022-11-17T10:29:33.721Z,0.90
2022-11-17T10:32:04.346Z,0.85
2022-11-17T10:34:40.115Z,0.80
2022-11-17T10:37:25.408Z,0.80
2022-11-17T10:40:13.352Z,0.90
2022-11-17T10:42:44.129Z,0.98
2022-11-17T10:45:19.008Z,0.88
2022-11-17T10:47:46.913Z,0.85
2022-11-17T10:50:26.851Z,0.80
2022-11-17T10:53:17.049Z,1.05
2022-11-17T10:55:45.420Z,0.90
2022-11-17T10:58:24.061Z,0.90
2022-11-17T11:00:57.149Z,0.80
2022-11-17T11:03:28.247Z,0.90
2022-11-17T11:05:58.499Z,0.80
2022-11-17T11:08:30.688Z,0.90
2022-11-17T11:11:00.892Z,0.73
2022-11-17T11:13:34.103Z,0.70
2022-11-17T11:16:03.535Z,0.80
2022-11-17T11:18:32.972Z,0.88
2022-11-17T11:21:11.201Z,1.17
2022-11-17T11:23:46.713Z,0.90
2022-11-17T11:26:26.056Z,0.70
2022-11-17T11:29:06.218Z,0.93
2022-11-17T11:31:45.369Z,0.80
2022-11-17T11:34:29.272Z,0.90
2022-11-17T11:37:01.364Z,0.80
2022-11-17T11:39:39.882Z,0.80
2022-11-17T11:42:34.750Z,0.70
2022-11-17T11:45:19.246Z,0.73
2022-11-17T11:48:03.769Z,0.90
2022-11-17T11:50:41.486Z,0.80
2022-11-17T11:53:17.323Z,0.63
2022-11-17T11:55:47.828Z,0.70
2022-11-17T11:58:21.560Z,0.80
2022-11-17T12:00:51.171Z,1.00
2022-11-17T12:06:30.689Z,0.70
2022-11-17T12:09:10.486Z,0.80
2022-11-17T12:11:58.742Z,0.90
2022-11-17T12:14:27.327Z,0.60
2022-11-17T12:17:02.988Z,0.70
2022-11-17T12:19:53.920Z,0.68
2022-11-17T12:23:09.029Z,0.70
2022-11-17T12:25:50.491Z,0.52
2022-11-17T12:28:35.688Z,0.80
2022-11-17T12:31:10.170Z,0.80
2022-11-17T12:34:10.934Z,0.60
2022-11-17T12:36:40.309Z,0.60
2022-11-17T12:39:48.094Z,0.90
2022-11-17T12:42:15.771Z,0.70
2022-11-17T12:44:44.961Z,0.73
2022-11-17T12:47:18.157Z,0.77
2022-11-17T12:50:00.665Z,0.57
2022-11-17T12:52:36.137Z,0.60
2022-11-17T12:55:13.807Z,0.70
2022-11-17T12:57:46.411Z,0.70
2022-11-17T13:00:20.926Z,0.73
2022-11-17T13:02:58.440Z,0.70
2022-11-17T13:05:27.889Z,0.80
2022-11-17T13:08:27.319Z,0.63
2022-11-17T13:11:04.676Z,0.80
2022-11-17T13:13:34.928Z,0.80
2022-11-17T13:16:05.756Z,0.70
2022-11-17T13:18:37.562Z,0.85
2022-11-17T13:21:16.163Z,0.70
2022-11-17T13:23:46.293Z,0.70
2022-11-17T13:26:22.560Z,0.50
2022-11-17T13:29:03.682Z,0.80
2022-11-17T13:31:31.536Z,0.70
2022-11-17T13:34:05.294Z,0.70
2022-11-17T13:36:33.533Z,0.70
2022-11-17T13:39:03.684Z,0.70
2022-11-17T13:41:38.084Z,0.63
2022-11-17T13:44:08.872Z,0.80
2022-11-17T13:46:36.739Z,0.60
2022-11-17T13:49:34.146Z,0.80
2022-11-17T13:52:06.714Z,0.68
2022-11-17T13:54:39.802Z,0.60
2022-11-17T13:57:16.508Z,0.88
2022-11-17T13:59:49.097Z,0.52
2022-11-17T14:02:36.851Z,0.68
2022-11-17T14:05:25.285Z,0.70
2022-11-17T14:08:06.782Z,0.90
2022-11-17T14:10:42.467Z,0.70
2022-11-17T14:13:37.379Z,0.80
2022-11-17T14:16:11.810Z,0.63
2022-11-17T14:18:44.073Z,0.70
2022-11-17T14:21:23.157Z,0.80
2022-11-17T14:24:17.773Z,0.90
2022-11-17T14:26:53.493Z,0.80
2022-11-17T14:29:26.117Z,0.98
2022-11-17T14:31:53.935Z,0.68
2022-11-17T14:34:21.994Z,0.80
2022-11-17T14:36:57.389Z,0.70
2022-11-17T14:39:31.440Z,0.90
2022-11-17T14:42:00.828Z,0.63
2022-11-17T14:44:28.886Z,0.90
2022-11-17T14:46:56.820Z,0.80
2022-11-17T14:49:25.214Z,0.80
2022-11-17T14:51:55.228Z,0.80
2022-11-17T14:54:23.050Z,1.00
2022-11-17T14:56:50.816Z,1.05
2022-11-17T14:59:20.375Z,0.90
2022-11-17T15:01:48.210Z,0.82
2022-11-17T15:04:48.117Z,0.90
2022-11-17T15:07:04.860Z,0.77
2022-11-17T15:09:32.996Z,0.80
2022-11-17T15:12:00.839Z,0.90
2022-11-17T15:14:30.056Z,0.80
2022-11-17T15:16:57.706Z,0.93
2022-11-17T15:19:25.468Z,0.80
2022-11-17T15:21:53.287Z,1.00
2022-11-17T15:24:22.773Z,1.00
2022-11-17T15:26:50.520Z,1.00
2022-11-17T15:29:18.524Z,0.60
2022-11-17T15:31:48.035Z,0.88
2022-11-17T15:34:20.168Z,1.05
2022-11-17T15:36:48.978Z,0.80
2022-11-17T15:39:17.307Z,0.80
2022-11-17T15:41:45.258Z,0.93
2022-11-17T15:44:13.507Z,0.80
2022-11-17T15:46:46.911Z,1.00
2022-11-17T15:49:17.207Z,1.00
2022-11-17T15:51:45.392Z,1.13
2022-11-17T15:54:20.018Z,0.90
2022-11-17T15:56:48.437Z,1.10
2022-11-17T15:59:16.621Z,0.90
2022-11-17T16:01:44.894Z,0.90
2022-11-17T16:04:14.736Z,1.27
2022-11-17T16:06:45.934Z,1.00
2022-11-17T16:09:15.306Z,0.93
2022-11-17T16:11:43.496Z,0.80
2022-11-17T16:14:11.703Z,0.90
2022-11-17T16:16:40.345Z,1.20
2022-11-17T16:19:08.399Z,0.90
2022-11-17T16:21:36.076Z,0.90
2022-11-17T16:24:05.390Z,1.10
2022-11-17T16:26:33.101Z,1.00
2022-11-17T16:29:02.353Z,1.15
2022-11-17T16:31:32.149Z,1.00
2022-11-17T16:34:01.486Z,1.20
2022-11-17T16:36:35.985Z,1.00
2022-11-17T16:39:07.445Z,1.10
2022-11-17T16:41:36.666Z,1.10
2022-11-17T16:44:08.804Z,1.05
2022-11-17T16:46:36.818Z,1.00
2022-11-17T16:49:06.505Z,1.30
2022-11-17T16:51:34.775Z,0.80
2022-11-17T16:54:05.657Z,0.90
2022-11-17T16:56:34.707Z,0.90
2022-11-17T16:59:02.694Z,1.13
2022-11-17T17:01:32.341Z,1.00
2022-11-17T17:06:29.349Z,1.20
2022-11-17T17:08:58.184Z,0.88
2022-11-17T17:11:29.264Z,1.27
2022-11-17T17:13:57.353Z,1.10
2022-11-17T17:16:25.738Z,0.98
2022-11-17T17:18:56.247Z,0.90
2022-11-17T17:21:24.326Z,1.00
2022-11-17T17:23:52.162Z,1.20
2022-11-17T17:26:22.365Z,1.00
2022-11-17T17:28:52.989Z,0.80
2022-11-17T17:31:23.086Z,1.00
2022-11-17T17:33:51.829Z,1.10
2022-11-17T17:36:20.973Z,1.20
2022-11-17T17:38:54.913Z,1.08
2022-11-17T17:41:24.477Z,1.13
2022-11-17T17:43:57.720Z,1.23
2022-11-17T17:46:25.895Z,1.10
2022-11-17T17:48:53.709Z,1.00
2022-11-17T17:51:24.892Z,1.10
2022-11-17T17:53:53.243Z,0.93
2022-11-17T17:56:22.543Z,1.25
2022-11-17T17:58:51.714Z,1.25
2022-11-17T18:01:22.649Z,1.33
2022-11-17T18:03:53.640Z,1.30
2022-11-17T18:06:22.860Z,1.10
2022-11-17T18:08:50.834Z,1.10
2022-11-17T18:11:20.363Z,1.10
2022-11-17T18:16:18.242Z,1.20
2022-11-17T18:18:47.333Z,1.58
2022-11-17T18:21:16.780Z,1.10
2022-11-17T18:23:44.947Z,1.38
2022-11-17T18:26:15.568Z,1.20
2022-11-17T18:28:44.860Z,1.27
2022-11-17T18:31:12.984Z,1.13
2022-11-17T18:33:40.680Z,1.35
2022-11-17T18:36:11.407Z,1.35
2022-11-17T18:38:39.644Z,1.10
2022-11-17T18:41:08.806Z,1.50
2022-11-17T18:43:37.444Z,1.02
2022-11-17T18:46:06.914Z,1.40
2022-11-17T18:48:36.581Z,1.20
2022-11-17T18:51:22.556Z,1.30
2022-11-17T18:53:52.808Z,1.52
2022-11-17T18:56:22.446Z,1.40
2022-11-17T19:01:19.467Z,1.48
2022-11-17T19:03:49.210Z,1.75
2022-11-17T19:06:18.164Z,1.50
2022-11-17T19:08:47.324Z,1.20
2022-11-17T19:11:17.913Z,1.70
2022-11-17T19:13:46.603Z,1.25
2022-11-17T19:16:16.391Z,1.43
2022-11-17T19:18:46.131Z,1.65
2022-11-17T19:21:15.678Z,1.20
2022-11-17T19:26:22.230Z,1.60
2022-11-17T19:28:50.956Z,1.45
2022-11-17T19:31:20.259Z,1.60
2022-11-17T19:33:49.305Z,1.60
2022-11-17T19:36:19.353Z,1.13
2022-11-17T19:38:49.769Z,1.50
2022-11-17T19:41:21.197Z,1.10
2022-11-17T19:43:49.531Z,1.50
2022-11-17T19:46:18.425Z,1.50
2022-11-17T19:48:46.484Z,1.70
2022-11-17T19:51:19.703Z,1.60
2022-11-17T19:53:47.644Z,1.35
2022-11-17T19:56:15.780Z,1.40
2022-11-17T19:58:45.992Z,1.45
2022-11-17T20:01:15.454Z,1.80
2022-11-17T20:06:12.839Z,1.67
2022-11-17T20:08:40.870Z,1.60
2022-11-17T20:11:10.656Z,1.60
2022-11-17T20:13:39.134Z,1.45
2022-11-17T20:16:12.510Z,1.88
2022-11-17T20:18:40.997Z,1.80
2022-11-17T20:21:09.468Z,1.60
2022-11-17T20:23:38.641Z,1.60
2022-11-17T20:26:07.294Z,1.63
2022-11-17T20:28:36.398Z,1.93
2022-11-17T20:31:09.821Z,1.73
2022-11-17T20:33:37.937Z,1.60
2022-11-17T20:36:06.688Z,1.63
2022-11-17T20:38:35.847Z,1.63
2022-11-17T20:41:03.904Z,1.80
2022-11-17T20:43:32.130Z,1.92
2022-11-17T20:46:00.243Z,1.50
2022-11-17T20:48:30.243Z,1.60
2022-11-17T20:50:59.034Z,1.50
2022-11-17T20:53:27.412Z,1.35
2022-11-17T20:55:57.007Z,1.88
2022-11-17T21:00:52.277Z,1.27
2022-11-17T21:03:20.356Z,1.90
2022-11-17T21:05:59.230Z,1.80
2022-11-17T21:08:28.645Z,2.05
2022-11-17T21:10:56.982Z,1.92
2022-11-17T21:13:25.501Z,1.40
2022-11-17T21:16:04.126Z,1.60
2022-11-17T21:18:31.888Z,1.83
2022-11-17T21:21:02.439Z,1.80
2022-11-17T21:23:30.146Z,1.70
2022-11-17T21:25:57.890Z,1.50
2022-11-17T21:28:25.558Z,1.58
2022-11-17T21:30:53.324Z,1.40
2022-11-17T21:33:21.007Z,1.40
2022-11-17T21:35:48.766Z,1.50
2022-11-17T21:38:17.825Z,1.63
2022-11-17T21:40:45.526Z,1.58
2022-11-17T21:43:13.216Z,1.55
2022-11-17T21:45:40.927Z,1.65
2022-11-17T21:48:08.602Z,1.80
2022-11-17T21:50:36.333Z,1.65
2022-11-17T21:53:04.010Z,1.30
2022-11-17T21:55:33.041Z,1.20
2022-11-17T21:58:00.774Z,1.20
2022-11-17T22:00:29.527Z,1.45
2022-11-17T22:02:57.230Z,1.27
2022-11-17T22:05:25.048Z,1.50
2022-11-17T22:07:52.768Z,1.48
2022-11-17T22:10:20.471Z,1.63
2022-11-17T22:12:49.571Z,1.48
2022-11-17T22:15:17.244Z,1.77
2022-11-17T22:17:45.141Z,1.50
2022-11-17T22:20:12.920Z,1.50
2022-11-17T22:22:40.686Z,1.48
2022-11-17T22:25:30.273Z,1.48
2022-11-17T22:27:57.972Z,1.70
2022-11-17T22:30:25.635Z,1.60
2022-11-17T22:32:53.319Z,1.40
2022-11-17T22:35:21.055Z,1.38
2022-11-17T22:37:49.433Z,1.17
2022-11-17T22:40:17.340Z,1.80
2022-11-17T22:42:45.054Z,1.40
2022-11-17T22:45:14.242Z,1.73
2022-11-17T22:47:42.180Z,1.52
2022-11-17T22:50:10.818Z,1.30
2022-11-17T22:52:38.793Z,1.60
2022-11-17T22:55:07.237Z,1.77
2022-11-17T22:57:34.960Z,1.42
2022-11-17T23:00:02.696Z,1.90
2022-11-17T23:02:31.849Z,1.80
2022-11-17T23:04:59.560Z,1.50
2022-11-17T23:07:27.351Z,1.50
2022-11-17T23:09:55.213Z,1.70
2022-11-17T23:12:22.899Z,1.60
2022-11-17T23:14:50.567Z,1.88
2022-11-17T23:17:18.313Z,1.60
2022-11-17T23:19:47.442Z,1.58
2022-11-17T23:22:15.163Z,1.70
2022-11-17T23:24:42.873Z,1.20
2022-11-17T23:27:10.808Z,1.58
2022-11-17T23:29:38.616Z,1.88
2022-11-17T23:32:06.771Z,1.73
2022-11-17T23:34:34.528Z,1.70
2022-11-17T23:37:04.209Z,1.63
2022-11-17T23:39:32.375Z,1.85
2022-11-17T23:42:00.047Z,1.80
2022-11-17T23:44:28.095Z,1.70
2022-11-17T23:46:55.799Z,1.50
2022-11-17T23:49:23.665Z,1.80
2022-11-17T23:51:51.341Z,1.70
2022-11-17T23:54:20.418Z,1.65
2022-11-17T23:56:50.440Z,1.83
2022-11-17T23:59:18.340Z,1.75
